sensor_id;sensor_type;location;lat;lon;timestamp;temperature;humidity
11736;DHT22;5924;51.398;7.088;2023-02-11T00:01:23;5.40;99.90
11736;DHT22;5924;51.398;7.088;2023-02-11T00:03:49;5.40;99.90
11736;DHT22;5924;51.398;7.088;2023-02-11T00:06:15;5.40;99.90
11736;DHT22;5924;51.398;7.088;2023-02-11T00:08:41;5.50;99.90
11736;DHT22;5924;51.398;7.088;2023-02-11T00:11:09;5.40;99.90
11736;DHT22;5924;51.398;7.088;2023-02-11T00:13:36;5.30;99.90
11736;DHT22;5924;51.398;7.088;2023-02-11T00:16:06;5.30;99.90
11736;DHT22;5924;51.398;7.088;2023-02-11T00:18:32;5.20;99.90
11736;DHT22;5924;51.398;7.088;2023-02-11T00:20:58;5.20;99.90
11736;DHT22;5924;51.398;7.088;2023-02-11T00:23:23;5.20;99.90
11736;DHT22;5924;51.398;7.088;2023-02-11T00:25:49;5.20;99.90
11736;DHT22;5924;51.398;7.088;2023-02-11T00:28:14;5.20;99.90
11736;DHT22;5924;51.398;7.088;2023-02-11T00:30:40;5.20;99.90
11736;DHT22;5924;51.398;7.088;2023-02-11T00:33:06;5.20;99.90
11736;DHT22;5924;51.398;7.088;2023-02-11T00:35:32;5.20;99.90
11736;DHT22;5924;51.398;7.088;2023-02-11T00:37:57;5.20;99.90
11736;DHT22;5924;51.398;7.088;2023-02-11T00:40:23;5.20;99.90
11736;DHT22;5924;51.398;7.088;2023-02-11T00:42:49;5.20;99.90
11736;DHT22;5924;51.398;7.088;2023-02-11T00:45:14;5.30;99.90
11736;DHT22;5924;51.398;7.088;2023-02-11T00:47:40;5.30;99.90
11736;DHT22;5924;51.398;7.088;2023-02-11T00:50:06;5.40;99.90
11736;DHT22;5924;51.398;7.088;2023-02-11T00:52:32;5.40;99.90
11736;DHT22;5924;51.398;7.088;2023-02-11T00:54:58;5.50;99.90
11736;DHT22;5924;51.398;7.088;2023-02-11T00:57:23;5.50;99.90
11736;DHT22;5924;51.398;7.088;2023-02-11T00:59:49;5.50;99.90
11736;DHT22;5924;51.398;7.088;2023-02-11T01:02:15;5.50;99.90
11736;DHT22;5924;51.398;7.088;2023-02-11T01:04:41;5.50;99.90
11736;DHT22;5924;51.398;7.088;2023-02-11T01:07:06;5.50;99.90
11736;DHT22;5924;51.398;7.088;2023-02-11T01:09:32;5.60;99.90
11736;DHT22;5924;51.398;7.088;2023-02-11T01:11:57;5.60;99.90
11736;DHT22;5924;51.398;7.088;2023-02-11T01:14:23;5.60;99.90
11736;DHT22;5924;51.398;7.088;2023-02-11T01:16:49;5.60;99.90
11736;DHT22;5924;51.398;7.088;2023-02-11T01:19:14;5.70;99.90
11736;DHT22;5924;51.398;7.088;2023-02-11T01:21:40;5.70;99.90
11736;DHT22;5924;51.398;7.088;2023-02-11T01:24:05;5.70;99.90
11736;DHT22;5924;51.398;7.088;2023-02-11T01:26:32;5.70;99.90
11736;DHT22;5924;51.398;7.088;2023-02-11T01:28:57;5.70;99.90
11736;DHT22;5924;51.398;7.088;2023-02-11T01:31:25;5.70;99.90
11736;DHT22;5924;51.398;7.088;2023-02-11T01:33:51;5.70;99.90
11736;DHT22;5924;51.398;7.088;2023-02-11T01:36:16;5.70;99.90
11736;DHT22;5924;51.398;7.088;2023-02-11T01:38:42;5.70;99.90
11736;DHT22;5924;51.398;7.088;2023-02-11T01:41:11;5.70;99.90
11736;DHT22;5924;51.398;7.088;2023-02-11T01:43:41;5.70;99.90
11736;DHT22;5924;51.398;7.088;2023-02-11T01:46:12;5.80;99.90
11736;DHT22;5924;51.398;7.088;2023-02-11T01:48:42;5.80;99.90
11736;DHT22;5924;51.398;7.088;2023-02-11T01:51:13;5.70;99.90
11736;DHT22;5924;51.398;7.088;2023-02-11T01:53:40;4.40;99.90
11736;DHT22;5924;51.398;7.088;2023-02-11T01:56:26;5.80;99.90
11736;DHT22;5924;51.398;7.088;2023-02-11T01:59:16;5.70;99.90
11736;DHT22;5924;51.398;7.088;2023-02-11T02:01:46;5.70;99.90
11736;DHT22;5924;51.398;7.088;2023-02-11T02:04:16;5.70;99.90
11736;DHT22;5924;51.398;7.088;2023-02-11T02:06:49;4.30;99.90
11736;DHT22;5924;51.398;7.088;2023-02-11T02:09:22;5.70;99.90
11736;DHT22;5924;51.398;7.088;2023-02-11T02:11:49;5.70;99.90
11736;DHT22;5924;51.398;7.088;2023-02-11T02:14:14;5.70;99.90
11736;DHT22;5924;51.398;7.088;2023-02-11T02:16:40;5.70;99.90
11736;DHT22;5924;51.398;7.088;2023-02-11T02:22:33;5.70;99.90
11736;DHT22;5924;51.398;7.088;2023-02-11T02:27:47;5.60;99.90
11736;DHT22;5924;51.398;7.088;2023-02-11T02:38:07;5.60;99.90
11736;DHT22;5924;51.398;7.088;2023-02-11T02:40:58;6.20;99.90
11736;DHT22;5924;51.398;7.088;2023-02-11T02:43:26;5.60;99.90
11736;DHT22;5924;51.398;7.088;2023-02-11T02:45:52;5.60;99.90
11736;DHT22;5924;51.398;7.088;2023-02-11T02:53:53;5.50;99.90
11736;DHT22;5924;51.398;7.088;2023-02-11T02:56:55;5.50;99.90
11736;DHT22;5924;51.398;7.088;2023-02-11T03:02:30;5.50;99.90
11736;DHT22;5924;51.398;7.088;2023-02-11T03:10:42;5.50;99.90
11736;DHT22;5924;51.398;7.088;2023-02-11T03:13:10;5.50;99.90
11736;DHT22;5924;51.398;7.088;2023-02-11T03:15:41;5.50;99.90
11736;DHT22;5924;51.398;7.088;2023-02-11T03:18:12;5.50;99.90
11736;DHT22;5924;51.398;7.088;2023-02-11T03:20:43;5.50;99.90
11736;DHT22;5924;51.398;7.088;2023-02-11T03:25:43;5.50;99.90
11736;DHT22;5924;51.398;7.088;2023-02-11T03:28:28;5.50;99.90
11736;DHT22;5924;51.398;7.088;2023-02-11T03:34:13;3.80;99.90
11736;DHT22;5924;51.398;7.088;2023-02-11T03:36:43;5.50;99.90
11736;DHT22;5924;51.398;7.088;2023-02-11T03:39:13;5.50;99.90
11736;DHT22;5924;51.398;7.088;2023-02-11T03:41:41;5.50;99.90
11736;DHT22;5924;51.398;7.088;2023-02-11T03:44:08;5.40;99.90
11736;DHT22;5924;51.398;7.088;2023-02-11T03:46:36;5.40;99.90
11736;DHT22;5924;51.398;7.088;2023-02-11T03:49:08;5.40;99.90
11736;DHT22;5924;51.398;7.088;2023-02-11T03:51:34;5.40;99.90
11736;DHT22;5924;51.398;7.088;2023-02-11T03:54:05;5.40;99.90
11736;DHT22;5924;51.398;7.088;2023-02-11T03:56:37;5.40;99.90
11736;DHT22;5924;51.398;7.088;2023-02-11T03:59:03;5.40;99.90
11736;DHT22;5924;51.398;7.088;2023-02-11T04:01:29;5.40;99.90
11736;DHT22;5924;51.398;7.088;2023-02-11T04:03:55;5.40;99.90
11736;DHT22;5924;51.398;7.088;2023-02-11T04:06:20;5.40;99.90
11736;DHT22;5924;51.398;7.088;2023-02-11T04:08:46;5.40;99.90
11736;DHT22;5924;51.398;7.088;2023-02-11T04:11:11;6.50;99.90
11736;DHT22;5924;51.398;7.088;2023-02-11T04:13:37;5.40;99.90
11736;DHT22;5924;51.398;7.088;2023-02-11T04:16:03;5.40;99.90
11736;DHT22;5924;51.398;7.088;2023-02-11T04:18:28;5.40;99.90
11736;DHT22;5924;51.398;7.088;2023-02-11T04:20:54;5.40;99.90
11736;DHT22;5924;51.398;7.088;2023-02-11T04:23:19;5.40;99.90
11736;DHT22;5924;51.398;7.088;2023-02-11T04:25:45;5.40;99.90
11736;DHT22;5924;51.398;7.088;2023-02-11T04:28:11;5.40;99.90
11736;DHT22;5924;51.398;7.088;2023-02-11T04:30:36;5.40;99.90
11736;DHT22;5924;51.398;7.088;2023-02-11T04:33:02;5.40;99.90
11736;DHT22;5924;51.398;7.088;2023-02-11T04:35:28;5.40;99.90
11736;DHT22;5924;51.398;7.088;2023-02-11T04:37:53;5.40;99.90
11736;DHT22;5924;51.398;7.088;2023-02-11T04:40:19;5.40;99.90
11736;DHT22;5924;51.398;7.088;2023-02-11T04:42:44;5.30;99.90
11736;DHT22;5924;51.398;7.088;2023-02-11T04:45:10;5.30;99.90
11736;DHT22;5924;51.398;7.088;2023-02-11T04:47:35;5.30;99.90
11736;DHT22;5924;51.398;7.088;2023-02-11T04:50:02;5.30;99.90
11736;DHT22;5924;51.398;7.088;2023-02-11T04:52:28;5.30;99.90
11736;DHT22;5924;51.398;7.088;2023-02-11T04:54:53;5.30;99.90
11736;DHT22;5924;51.398;7.088;2023-02-11T04:57:19;5.20;99.90
11736;DHT22;5924;51.398;7.088;2023-02-11T04:59:45;5.20;99.90
11736;DHT22;5924;51.398;7.088;2023-02-11T05:02:10;5.20;99.90
11736;DHT22;5924;51.398;7.088;2023-02-11T05:04:36;5.20;99.90
11736;DHT22;5924;51.398;7.088;2023-02-11T05:07:01;5.20;99.90
11736;DHT22;5924;51.398;7.088;2023-02-11T05:09:27;5.20;99.90
11736;DHT22;5924;51.398;7.088;2023-02-11T05:11:53;5.10;99.90
11736;DHT22;5924;51.398;7.088;2023-02-11T05:14:18;5.10;99.90
11736;DHT22;5924;51.398;7.088;2023-02-11T05:16:44;5.10;99.90
11736;DHT22;5924;51.398;7.088;2023-02-11T05:19:09;5.10;99.90
11736;DHT22;5924;51.398;7.088;2023-02-11T05:21:35;5.10;99.90
11736;DHT22;5924;51.398;7.088;2023-02-11T05:24:00;5.10;99.90
11736;DHT22;5924;51.398;7.088;2023-02-11T05:26:26;5.10;99.90
11736;DHT22;5924;51.398;7.088;2023-02-11T05:28:52;5.00;99.90
11736;DHT22;5924;51.398;7.088;2023-02-11T05:31:17;5.00;99.90
11736;DHT22;5924;51.398;7.088;2023-02-11T05:33:43;7.80;99.90
11736;DHT22;5924;51.398;7.088;2023-02-11T05:36:10;4.90;99.90
11736;DHT22;5924;51.398;7.088;2023-02-11T05:38:36;4.90;99.90
11736;DHT22;5924;51.398;7.088;2023-02-11T05:41:03;4.90;99.90
11736;DHT22;5924;51.398;7.088;2023-02-11T05:43:30;4.90;99.90
11736;DHT22;5924;51.398;7.088;2023-02-11T05:45:55;4.90;99.90
11736;DHT22;5924;51.398;7.088;2023-02-11T05:48:21;4.80;99.90
11736;DHT22;5924;51.398;7.088;2023-02-11T05:50:47;4.80;99.90
11736;DHT22;5924;51.398;7.088;2023-02-11T05:53:13;4.80;99.90
11736;DHT22;5924;51.398;7.088;2023-02-11T05:55:39;4.80;99.90
11736;DHT22;5924;51.398;7.088;2023-02-11T05:58:05;4.80;99.90
11736;DHT22;5924;51.398;7.088;2023-02-11T06:00:31;4.90;99.90
11736;DHT22;5924;51.398;7.088;2023-02-11T06:02:56;4.80;99.90
11736;DHT22;5924;51.398;7.088;2023-02-11T06:05:22;4.90;99.90
11736;DHT22;5924;51.398;7.088;2023-02-11T06:07:47;4.90;99.90
11736;DHT22;5924;51.398;7.088;2023-02-11T06:10:13;4.90;99.90
11736;DHT22;5924;51.398;7.088;2023-02-11T06:12:39;4.90;99.90
11736;DHT22;5924;51.398;7.088;2023-02-11T06:15:05;4.90;99.90
11736;DHT22;5924;51.398;7.088;2023-02-11T06:17:31;4.90;99.90
11736;DHT22;5924;51.398;7.088;2023-02-11T06:19:58;4.90;99.90
11736;DHT22;5924;51.398;7.088;2023-02-11T06:22:24;4.90;99.90
11736;DHT22;5924;51.398;7.088;2023-02-11T06:24:50;5.00;99.90
11736;DHT22;5924;51.398;7.088;2023-02-11T06:27:16;5.00;99.90
11736;DHT22;5924;51.398;7.088;2023-02-11T06:29:43;5.00;99.90
11736;DHT22;5924;51.398;7.088;2023-02-11T06:32:09;5.00;99.90
11736;DHT22;5924;51.398;7.088;2023-02-11T06:34:35;5.00;99.90
11736;DHT22;5924;51.398;7.088;2023-02-11T06:37:01;5.00;99.90
11736;DHT22;5924;51.398;7.088;2023-02-11T06:39:27;5.00;99.90
11736;DHT22;5924;51.398;7.088;2023-02-11T06:41:52;5.00;99.90
11736;DHT22;5924;51.398;7.088;2023-02-11T06:44:18;5.00;99.90
11736;DHT22;5924;51.398;7.088;2023-02-11T06:46:44;5.00;99.90
11736;DHT22;5924;51.398;7.088;2023-02-11T06:49:09;5.00;99.90
11736;DHT22;5924;51.398;7.088;2023-02-11T06:51:35;5.00;99.90
11736;DHT22;5924;51.398;7.088;2023-02-11T06:54:01;5.00;99.90
11736;DHT22;5924;51.398;7.088;2023-02-11T06:56:26;5.00;99.90
11736;DHT22;5924;51.398;7.088;2023-02-11T06:58:53;5.00;99.90
11736;DHT22;5924;51.398;7.088;2023-02-11T07:01:23;5.00;99.90
11736;DHT22;5924;51.398;7.088;2023-02-11T07:03:50;5.00;99.90
11736;DHT22;5924;51.398;7.088;2023-02-11T07:06:19;5.00;99.90
11736;DHT22;5924;51.398;7.088;2023-02-11T07:08:45;5.00;99.90
11736;DHT22;5924;51.398;7.088;2023-02-11T07:11:14;5.00;99.90
11736;DHT22;5924;51.398;7.088;2023-02-11T07:13:40;5.00;99.90
11736;DHT22;5924;51.398;7.088;2023-02-11T07:16:09;5.00;99.90
11736;DHT22;5924;51.398;7.088;2023-02-11T07:18:35;5.00;99.90
11736;DHT22;5924;51.398;7.088;2023-02-11T07:21:06;5.00;99.90
11736;DHT22;5924;51.398;7.088;2023-02-11T07:23:32;5.00;99.90
11736;DHT22;5924;51.398;7.088;2023-02-11T07:26:02;5.00;99.90
11736;DHT22;5924;51.398;7.088;2023-02-11T07:28:28;5.00;99.90
11736;DHT22;5924;51.398;7.088;2023-02-11T07:30:53;5.00;99.90
11736;DHT22;5924;51.398;7.088;2023-02-11T07:33:19;5.00;99.90
11736;DHT22;5924;51.398;7.088;2023-02-11T07:35:44;5.00;99.90
11736;DHT22;5924;51.398;7.088;2023-02-11T07:38:10;5.00;99.90
11736;DHT22;5924;51.398;7.088;2023-02-11T07:40:35;5.00;99.90
11736;DHT22;5924;51.398;7.088;2023-02-11T07:43:01;5.10;99.90
11736;DHT22;5924;51.398;7.088;2023-02-11T07:45:27;5.10;99.90
11736;DHT22;5924;51.398;7.088;2023-02-11T07:47:53;5.10;99.90
11736;DHT22;5924;51.398;7.088;2023-02-11T07:50:19;5.10;99.90
11736;DHT22;5924;51.398;7.088;2023-02-11T07:52:45;5.10;99.90
11736;DHT22;5924;51.398;7.088;2023-02-11T07:55:11;5.10;99.90
11736;DHT22;5924;51.398;7.088;2023-02-11T07:57:36;5.10;99.90
11736;DHT22;5924;51.398;7.088;2023-02-11T08:00:03;5.10;99.90
11736;DHT22;5924;51.398;7.088;2023-02-11T08:02:29;5.10;99.90
11736;DHT22;5924;51.398;7.088;2023-02-11T08:04:54;5.20;99.90
11736;DHT22;5924;51.398;7.088;2023-02-11T08:07:20;5.20;99.90
11736;DHT22;5924;51.398;7.088;2023-02-11T08:09:46;5.20;99.90
11736;DHT22;5924;51.398;7.088;2023-02-11T08:12:12;5.20;99.90
11736;DHT22;5924;51.398;7.088;2023-02-11T08:14:37;5.20;99.90
11736;DHT22;5924;51.398;7.088;2023-02-11T08:17:03;5.20;99.90
11736;DHT22;5924;51.398;7.088;2023-02-11T08:19:28;5.20;99.90
11736;DHT22;5924;51.398;7.088;2023-02-11T08:21:55;5.30;99.90
11736;DHT22;5924;51.398;7.088;2023-02-11T08:24:21;5.30;99.90
11736;DHT22;5924;51.398;7.088;2023-02-11T08:26:47;5.40;99.90
11736;DHT22;5924;51.398;7.088;2023-02-11T08:29:14;5.40;99.90
11736;DHT22;5924;51.398;7.088;2023-02-11T08:31:42;5.40;99.90
11736;DHT22;5924;51.398;7.088;2023-02-11T08:34:09;5.40;99.90
11736;DHT22;5924;51.398;7.088;2023-02-11T08:36:37;5.40;99.90
11736;DHT22;5924;51.398;7.088;2023-02-11T08:39:05;5.50;99.90
11736;DHT22;5924;51.398;7.088;2023-02-11T08:41:33;5.40;99.90
11736;DHT22;5924;51.398;7.088;2023-02-11T08:43:59;5.50;99.90
11736;DHT22;5924;51.398;7.088;2023-02-11T08:46:25;6.80;99.90
11736;DHT22;5924;51.398;7.088;2023-02-11T08:48:51;5.50;99.90
11736;DHT22;5924;51.398;7.088;2023-02-11T08:51:20;5.50;99.90
11736;DHT22;5924;51.398;7.088;2023-02-11T08:53:46;5.50;99.90
11736;DHT22;5924;51.398;7.088;2023-02-11T08:56:12;5.60;99.90
11736;DHT22;5924;51.398;7.088;2023-02-11T08:58:38;5.60;99.90
11736;DHT22;5924;51.398;7.088;2023-02-11T09:01:33;5.60;99.90
11736;DHT22;5924;51.398;7.088;2023-02-11T09:03:59;7.50;99.90
11736;DHT22;5924;51.398;7.088;2023-02-11T09:06:26;5.70;99.90
11736;DHT22;5924;51.398;7.088;2023-02-11T09:08:53;5.70;99.90
11736;DHT22;5924;51.398;7.088;2023-02-11T09:11:21;5.80;99.90
11736;DHT22;5924;51.398;7.088;2023-02-11T09:13:47;5.80;99.90
11736;DHT22;5924;51.398;7.088;2023-02-11T09:16:27;5.80;99.90
11736;DHT22;5924;51.398;7.088;2023-02-11T09:18:56;5.90;99.90
11736;DHT22;5924;51.398;7.088;2023-02-11T09:21:22;5.80;99.90
11736;DHT22;5924;51.398;7.088;2023-02-11T09:23:47;5.90;99.90
11736;DHT22;5924;51.398;7.088;2023-02-11T09:26:20;5.90;99.90
11736;DHT22;5924;51.398;7.088;2023-02-11T09:28:46;5.90;99.90
11736;DHT22;5924;51.398;7.088;2023-02-11T09:31:15;6.00;99.90
11736;DHT22;5924;51.398;7.088;2023-02-11T09:33:42;6.00;99.90
11736;DHT22;5924;51.398;7.088;2023-02-11T09:36:14;6.00;99.90
11736;DHT22;5924;51.398;7.088;2023-02-11T09:38:40;6.00;99.90
11736;DHT22;5924;51.398;7.088;2023-02-11T09:41:24;6.10;99.90
11736;DHT22;5924;51.398;7.088;2023-02-11T09:43:56;6.10;99.90
11736;DHT22;5924;51.398;7.088;2023-02-11T09:46:24;6.10;99.90
11736;DHT22;5924;51.398;7.088;2023-02-11T09:48:53;6.10;99.90
11736;DHT22;5924;51.398;7.088;2023-02-11T09:51:32;6.20;99.90
11736;DHT22;5924;51.398;7.088;2023-02-11T09:54:04;6.20;99.90
11736;DHT22;5924;51.398;7.088;2023-02-11T09:56:32;4.00;99.90
11736;DHT22;5924;51.398;7.088;2023-02-11T09:58:57;6.30;99.90
11736;DHT22;5924;51.398;7.088;2023-02-11T10:23:57;6.50;99.90
11736;DHT22;5924;51.398;7.088;2023-02-11T10:26:28;6.50;99.90
11736;DHT22;5924;51.398;7.088;2023-02-11T10:28:59;6.60;99.90
11736;DHT22;5924;51.398;7.088;2023-02-11T10:31:33;6.60;99.90
11736;DHT22;5924;51.398;7.088;2023-02-11T10:34:08;6.60;99.90
11736;DHT22;5924;51.398;7.088;2023-02-11T10:36:36;6.70;99.90
11736;DHT22;5924;51.398;7.088;2023-02-11T10:39:21;6.80;99.90
11736;DHT22;5924;51.398;7.088;2023-02-11T10:41:53;6.80;99.90
11736;DHT22;5924;51.398;7.088;2023-02-11T10:44:32;6.80;99.90
11736;DHT22;5924;51.398;7.088;2023-02-11T10:47:03;6.90;99.90
11736;DHT22;5924;51.398;7.088;2023-02-11T10:49:43;6.90;99.90
11736;DHT22;5924;51.398;7.088;2023-02-11T10:52:19;6.90;99.90
11736;DHT22;5924;51.398;7.088;2023-02-11T10:55:01;7.00;99.90
11736;DHT22;5924;51.398;7.088;2023-02-11T10:57:36;7.00;99.90
11736;DHT22;5924;51.398;7.088;2023-02-11T11:02:56;7.00;99.90
11736;DHT22;5924;51.398;7.088;2023-02-11T11:05:44;7.00;99.90
11736;DHT22;5924;51.398;7.088;2023-02-11T11:08:10;7.00;99.90
11736;DHT22;5924;51.398;7.088;2023-02-11T11:10:46;7.00;99.90
11736;DHT22;5924;51.398;7.088;2023-02-11T11:13:33;7.00;99.90
11736;DHT22;5924;51.398;7.088;2023-02-11T11:16:14;7.10;99.90
11736;DHT22;5924;51.398;7.088;2023-02-11T11:18:44;7.00;99.90
11736;DHT22;5924;51.398;7.088;2023-02-11T11:24:09;7.00;99.90
11736;DHT22;5924;51.398;7.088;2023-02-11T11:26:45;7.00;99.90
11736;DHT22;5924;51.398;7.088;2023-02-11T11:31:55;7.10;99.90
11736;DHT22;5924;51.398;7.088;2023-02-11T11:34:35;7.00;99.90
11736;DHT22;5924;51.398;7.088;2023-02-11T11:37:12;7.00;99.90
11736;DHT22;5924;51.398;7.088;2023-02-11T11:39:38;7.00;99.90
11736;DHT22;5924;51.398;7.088;2023-02-11T11:42:30;7.00;99.90
11736;DHT22;5924;51.398;7.088;2023-02-11T11:45:02;7.00;99.90
11736;DHT22;5924;51.398;7.088;2023-02-11T11:53:12;7.10;99.90
11736;DHT22;5924;51.398;7.088;2023-02-11T11:55:44;7.10;99.90
11736;DHT22;5924;51.398;7.088;2023-02-11T11:58:15;7.10;99.90
11736;DHT22;5924;51.398;7.088;2023-02-11T12:21:11;7.40;99.90
11736;DHT22;5924;51.398;7.088;2023-02-11T12:26:45;7.40;99.90
11736;DHT22;5924;51.398;7.088;2023-02-11T12:29:24;7.30;99.90
11736;DHT22;5924;51.398;7.088;2023-02-11T12:32:21;7.30;99.90
11736;DHT22;5924;51.398;7.088;2023-02-11T12:41:14;7.30;99.90
11736;DHT22;5924;51.398;7.088;2023-02-11T12:43:43;7.40;99.90
11736;DHT22;5924;51.398;7.088;2023-02-11T12:51:31;7.50;99.90
11736;DHT22;5924;51.398;7.088;2023-02-11T12:59:39;7.50;99.90
11736;DHT22;5924;51.398;7.088;2023-02-11T13:02:20;7.50;99.90
11736;DHT22;5924;51.398;7.088;2023-02-11T13:04:53;7.50;99.90
11736;DHT22;5924;51.398;7.088;2023-02-11T13:07:29;7.50;99.90
11736;DHT22;5924;51.398;7.088;2023-02-11T13:10:23;7.50;99.90
11736;DHT22;5924;51.398;7.088;2023-02-11T13:12:51;7.60;99.90
11736;DHT22;5924;51.398;7.088;2023-02-11T13:15:36;7.60;99.90
11736;DHT22;5924;51.398;7.088;2023-02-11T13:26:32;7.60;99.90
11736;DHT22;5924;51.398;7.088;2023-02-11T13:31:33;7.10;99.90
11736;DHT22;5924;51.398;7.088;2023-02-11T13:33:59;7.60;99.90
11736;DHT22;5924;51.398;7.088;2023-02-11T13:36:26;7.60;99.90
11736;DHT22;5924;51.398;7.088;2023-02-11T13:38:58;7.60;99.90
11736;DHT22;5924;51.398;7.088;2023-02-11T13:49:36;7.60;99.90
11736;DHT22;5924;51.398;7.088;2023-02-11T13:52:16;7.60;99.90
11736;DHT22;5924;51.398;7.088;2023-02-11T13:54:47;7.60;99.90
11736;DHT22;5924;51.398;7.088;2023-02-11T13:59:47;7.60;99.90
11736;DHT22;5924;51.398;7.088;2023-02-11T14:10:52;7.60;99.90
11736;DHT22;5924;51.398;7.088;2023-02-11T14:13:35;7.50;99.90
11736;DHT22;5924;51.398;7.088;2023-02-11T14:21:21;7.50;99.90
11736;DHT22;5924;51.398;7.088;2023-02-11T14:23:48;7.50;99.90
11736;DHT22;5924;51.398;7.088;2023-02-11T14:29:28;7.50;99.90
11736;DHT22;5924;51.398;7.088;2023-02-11T14:32:17;7.50;99.90
11736;DHT22;5924;51.398;7.088;2023-02-11T14:34:52;7.50;99.90
11736;DHT22;5924;51.398;7.088;2023-02-11T14:38:04;7.50;99.90
11736;DHT22;5924;51.398;7.088;2023-02-11T14:41:31;7.60;99.90
11736;DHT22;5924;51.398;7.088;2023-02-11T14:43:57;7.60;99.90
11736;DHT22;5924;51.398;7.088;2023-02-11T14:46:24;7.70;99.90
11736;DHT22;5924;51.398;7.088;2023-02-11T14:48:54;7.80;99.90
11736;DHT22;5924;51.398;7.088;2023-02-11T14:51:30;8.00;99.90
11736;DHT22;5924;51.398;7.088;2023-02-11T14:54:04;8.00;99.90
11736;DHT22;5924;51.398;7.088;2023-02-11T14:56:35;8.20;99.90
11736;DHT22;5924;51.398;7.088;2023-02-11T14:59:01;8.30;99.90
11736;DHT22;5924;51.398;7.088;2023-02-11T15:01:39;8.40;99.90
11736;DHT22;5924;51.398;7.088;2023-02-11T15:04:20;8.40;99.90
11736;DHT22;5924;51.398;7.088;2023-02-11T15:06:47;8.40;99.90
11736;DHT22;5924;51.398;7.088;2023-02-11T15:09:18;8.50;99.90
11736;DHT22;5924;51.398;7.088;2023-02-11T15:11:46;8.40;99.90
11736;DHT22;5924;51.398;7.088;2023-02-11T15:14:43;8.40;99.90
11736;DHT22;5924;51.398;7.088;2023-02-11T15:17:13;8.40;99.90
11736;DHT22;5924;51.398;7.088;2023-02-11T15:19:44;8.40;99.90
11736;DHT22;5924;51.398;7.088;2023-02-11T15:22:18;8.30;99.90
11736;DHT22;5924;51.398;7.088;2023-02-11T15:25:00;8.30;99.90
11736;DHT22;5924;51.398;7.088;2023-02-11T15:27:26;8.20;99.90
11736;DHT22;5924;51.398;7.088;2023-02-11T15:29:52;8.20;99.90
11736;DHT22;5924;51.398;7.088;2023-02-11T15:32:24;8.20;99.90
11736;DHT22;5924;51.398;7.088;2023-02-11T15:34:51;8.10;99.90
11736;DHT22;5924;51.398;7.088;2023-02-11T15:37:22;8.00;99.90
11736;DHT22;5924;51.398;7.088;2023-02-11T15:39:49;8.00;99.90
11736;DHT22;5924;51.398;7.088;2023-02-11T15:42:26;8.00;99.90
11736;DHT22;5924;51.398;7.088;2023-02-11T15:47:36;7.90;99.90
11736;DHT22;5924;51.398;7.088;2023-02-11T15:50:03;7.90;99.90
11736;DHT22;5924;51.398;7.088;2023-02-11T15:52:29;7.90;99.90
11736;DHT22;5924;51.398;7.088;2023-02-11T15:54:57;7.80;99.90
11736;DHT22;5924;51.398;7.088;2023-02-11T15:57:25;7.80;99.90
11736;DHT22;5924;51.398;7.088;2023-02-11T15:59:54;7.80;99.90
11736;DHT22;5924;51.398;7.088;2023-02-11T16:02:32;7.70;99.90
11736;DHT22;5924;51.398;7.088;2023-02-11T16:05:00;7.70;99.90
11736;DHT22;5924;51.398;7.088;2023-02-11T16:07:41;7.70;99.90
11736;DHT22;5924;51.398;7.088;2023-02-11T16:18:01;7.70;99.90
11736;DHT22;5924;51.398;7.088;2023-02-11T16:20:28;7.60;99.90
11736;DHT22;5924;51.398;7.088;2023-02-11T16:22:54;9.60;99.90
11736;DHT22;5924;51.398;7.088;2023-02-11T16:25:20;7.60;99.90
11736;DHT22;5924;51.398;7.088;2023-02-11T16:27:55;7.50;99.90
11736;DHT22;5924;51.398;7.088;2023-02-11T16:30:28;7.50;99.90
11736;DHT22;5924;51.398;7.088;2023-02-11T16:32:56;7.50;99.90
11736;DHT22;5924;51.398;7.088;2023-02-11T16:35:22;7.50;99.90
11736;DHT22;5924;51.398;7.088;2023-02-11T16:37:47;7.50;99.90
11736;DHT22;5924;51.398;7.088;2023-02-11T16:40:13;7.40;99.90
11736;DHT22;5924;51.398;7.088;2023-02-11T16:42:39;7.40;99.90
11736;DHT22;5924;51.398;7.088;2023-02-11T16:45:05;7.40;99.90
11736;DHT22;5924;51.398;7.088;2023-02-11T16:47:31;7.40;99.90
11736;DHT22;5924;51.398;7.088;2023-02-11T16:49:59;7.30;99.90
11736;DHT22;5924;51.398;7.088;2023-02-11T16:52:25;7.30;99.90
11736;DHT22;5924;51.398;7.088;2023-02-11T16:54:51;7.30;99.90
11736;DHT22;5924;51.398;7.088;2023-02-11T16:57:19;7.30;99.90
11736;DHT22;5924;51.398;7.088;2023-02-11T16:59:45;7.30;99.90
11736;DHT22;5924;51.398;7.088;2023-02-11T17:02:30;7.30;99.90
11736;DHT22;5924;51.398;7.088;2023-02-11T17:04:59;7.30;99.90
11736;DHT22;5924;51.398;7.088;2023-02-11T17:07:26;7.30;99.90
11736;DHT22;5924;51.398;7.088;2023-02-11T17:09:52;7.30;99.90
11736;DHT22;5924;51.398;7.088;2023-02-11T17:12:18;7.30;99.90
11736;DHT22;5924;51.398;7.088;2023-02-11T17:14:44;7.30;99.90
11736;DHT22;5924;51.398;7.088;2023-02-11T17:17:10;7.30;99.90
11736;DHT22;5924;51.398;7.088;2023-02-11T17:19:36;7.30;99.90
11736;DHT22;5924;51.398;7.088;2023-02-11T17:22:02;7.30;99.90
11736;DHT22;5924;51.398;7.088;2023-02-11T17:24:28;7.30;99.90
11736;DHT22;5924;51.398;7.088;2023-02-11T17:26:53;7.30;99.90
11736;DHT22;5924;51.398;7.088;2023-02-11T17:29:21;7.30;99.90
11736;DHT22;5924;51.398;7.088;2023-02-11T17:31:48;7.30;99.90
11736;DHT22;5924;51.398;7.088;2023-02-11T17:34:13;7.30;99.90
11736;DHT22;5924;51.398;7.088;2023-02-11T17:36:40;7.30;99.90
11736;DHT22;5924;51.398;7.088;2023-02-11T17:39:06;7.30;99.90
11736;DHT22;5924;51.398;7.088;2023-02-11T17:41:32;7.30;99.90
11736;DHT22;5924;51.398;7.088;2023-02-11T17:43:58;7.30;99.90
11736;DHT22;5924;51.398;7.088;2023-02-11T17:46:25;7.30;99.90
11736;DHT22;5924;51.398;7.088;2023-02-11T17:48:52;7.20;99.90
11736;DHT22;5924;51.398;7.088;2023-02-11T17:53:47;7.20;99.90
11736;DHT22;5924;51.398;7.088;2023-02-11T17:56:12;7.20;99.90
11736;DHT22;5924;51.398;7.088;2023-02-11T17:58:38;7.20;99.90
11736;DHT22;5924;51.398;7.088;2023-02-11T18:01:04;7.20;99.90
11736;DHT22;5924;51.398;7.088;2023-02-11T18:03:30;7.20;99.90
11736;DHT22;5924;51.398;7.088;2023-02-11T18:06:03;7.10;99.90
11736;DHT22;5924;51.398;7.088;2023-02-11T18:08:29;7.20;99.90
11736;DHT22;5924;51.398;7.088;2023-02-11T18:10:55;7.20;99.90
11736;DHT22;5924;51.398;7.088;2023-02-11T18:13:21;7.20;99.90
11736;DHT22;5924;51.398;7.088;2023-02-11T18:15:47;4.60;99.90
11736;DHT22;5924;51.398;7.088;2023-02-11T18:18:12;7.20;99.90
11736;DHT22;5924;51.398;7.088;2023-02-11T18:20:39;7.20;99.90
11736;DHT22;5924;51.398;7.088;2023-02-11T18:23:07;7.20;99.90
11736;DHT22;5924;51.398;7.088;2023-02-11T18:25:33;7.20;99.90
11736;DHT22;5924;51.398;7.088;2023-02-11T18:27:58;7.20;99.90
11736;DHT22;5924;51.398;7.088;2023-02-11T18:30:24;7.20;99.90
11736;DHT22;5924;51.398;7.088;2023-02-11T18:32:54;7.20;99.90
11736;DHT22;5924;51.398;7.088;2023-02-11T18:35:21;7.20;99.90
11736;DHT22;5924;51.398;7.088;2023-02-11T18:37:47;7.20;99.90
11736;DHT22;5924;51.398;7.088;2023-02-11T18:40:13;7.20;99.90
11736;DHT22;5924;51.398;7.088;2023-02-11T18:42:39;7.20;99.90
11736;DHT22;5924;51.398;7.088;2023-02-11T18:45:06;9.50;99.90
11736;DHT22;5924;51.398;7.088;2023-02-11T18:47:35;7.10;99.90
11736;DHT22;5924;51.398;7.088;2023-02-11T18:50:06;7.20;99.90
11736;DHT22;5924;51.398;7.088;2023-02-11T18:52:33;7.10;99.90
11736;DHT22;5924;51.398;7.088;2023-02-11T18:55:01;7.10;99.90
11736;DHT22;5924;51.398;7.088;2023-02-11T18:57:27;7.10;99.90